Terminal Aerodrome Forecast
Issued by NWS Mt. Holly, NJ

Home | Current Version | Previous Version | Text Only | Print | Product List | Glossary On
Versions: 1 2 3 4 5 6 7 8 9 10 11 12 13 14 15 16 17 18 19 20 21 22 23 24
679
FTUS41 KPHI 031732
TAFILG
TAF
KILG 031732Z 0318/0418 03008KT P6SM BKN006 OVC012
      TEMPO 0318/0320 4SM -DZ BR SCT006 OVC012
     FM032000 04008KT P6SM SCT006 OVC015
     FM040100 05006KT P6SM OVC006
     FM040500 05008KT 4SM BR OVC003
     FM041600 05008KT P6SM -SHRA BKN006 OVC015=

USA.gov is the U.S. government's official web portal to all federal, state and local government web resources and services.